Time,TemperatureF,DewpointF,PressureIn,WindDirection,WindDirectionDegrees,WindSpeedMPH,WindSpeedGustMPH,Humidity,HourlyPrecipIn,Conditions,Clouds,dailyrainin,SoftwareType,DateUTC
2013-04-10 00:11:00,13.2,10.0,30.37,WNW,285,3.0,10.0,87,0.00,,,0.00,weatherlink.com 1.10,2013-04-10 06:11:00,
2013-04-10 00:26:00,13.2,10.0,30.37,WNW,294,6.0,10.0,88,0.00,,,0.00,weatherlink.com 1.10,2013-04-10 06:26:00,
2013-04-10 00:41:00,13.2,10.0,30.37,WNW,301,8.0,9.0,87,0.00,,,0.00,weatherlink.com 1.10,2013-04-10 06:41:00,
2013-04-10 00:56:00,13.2,10.0,30.37,WNW,288,5.0,10.0,86,0.00,,,0.00,weatherlink.com 1.10,2013-04-10 06:56:00,
2013-04-10 01:11:00,13.2,10.0,30.37,West,281,3.0,9.0,86,0.00,,,0.00,weatherlink.com 1.10,2013-04-10 07:11:00,
2013-04-10 01:26:00,13.0,10.0,30.38,West,277,2.0,4.0,87,0.00,,,0.00,weatherlink.com 1.10,2013-04-10 07:26:00,
2013-04-10 01:41:00,12.9,10.0,30.37,West,263,1.0,4.0,88,0.00,,,0.00,weatherlink.com 1.10,2013-04-10 07:41:00,
2013-04-10 01:57:00,12.7,10.0,30.37,West,277,2.0,2.0,88,0.00,,,0.00,weatherlink.com 1.10,2013-04-10 07:57:00,
2013-04-10 02:12:00,12.6,10.0,30.36,West,274,0.0,4.0,88,0.00,,,0.00,weatherlink.com 1.10,2013-04-10 08:12:00,
2013-04-10 02:27:00,12.6,10.0,30.35,WNW,295,2.0,4.0,89,0.00,,,0.00,weatherlink.com 1.10,2013-04-10 08:27:00,
2013-04-10 02:42:00,12.6,10.0,30.32,West,274,3.0,4.0,89,0.00,,,0.00,weatherlink.com 1.10,2013-04-10 08:42:00,
2013-04-10 02:57:00,12.6,10.0,30.32,WNW,299,3.0,6.0,89,0.00,,,0.00,weatherlink.com 1.10,2013-04-10 08:57:00,
2013-04-10 03:12:00,12.7,10.0,30.32,WNW,302,6.0,7.0,89,0.00,,,0.00,weatherlink.com 1.10,2013-04-10 09:12:00,
2013-04-10 03:27:00,12.8,10.0,30.32,WNW,302,5.0,9.0,89,0.00,,,0.00,weatherlink.com 1.10,2013-04-10 09:27:00,
2013-04-10 03:42:00,12.6,10.0,30.32,NW,305,4.0,7.0,89,0.00,,,0.00,weatherlink.com 1.10,2013-04-10 09:42:00,
2013-04-10 03:57:00,12.2,10.0,30.32,West,278,2.0,6.0,89,0.00,,,0.00,weatherlink.com 1.10,2013-04-10 09:57:00,
2013-04-10 04:12:00,12.1,10.0,30.32,WNW,295,4.0,7.0,89,0.00,,,0.00,weatherlink.com 1.10,2013-04-10 10:12:00,
2013-04-10 04:27:00,12.3,10.0,30.32,West,280,3.0,3.0,89,0.00,,,0.00,weatherlink.com 1.10,2013-04-10 10:27:00,
2013-04-10 04:57:00,12.5,10.0,30.32,West,263,3.0,7.0,89,0.00,,,0.00,weatherlink.com 1.10,2013-04-10 10:57:00,
2013-04-10 05:12:00,12.6,10.0,30.31,WNW,287,2.0,7.0,89,0.00,,,0.00,weatherlink.com 1.10,2013-04-10 11:12:00,
2013-04-10 05:27:00,12.8,10.0,30.32,WNW,288,4.0,7.0,89,0.00,,,0.00,weatherlink.com 1.10,2013-04-10 11:27:00,
2013-04-10 05:42:00,10.4,8.0,30.32,NW,305,2.0,8.0,89,0.00,,,0.00,weatherlink.com 1.10,2013-04-10 11:42:00,
2013-04-10 05:57:00,-999.0,-99.9,30.32,North,-999,-999.0,-999.0,-999,0.00,,,0.00,weatherlink.com 1.10,2013-04-10 11:57:00,
2013-04-10 06:13:00,-999.0,-99.9,30.31,North,-999,-999.0,-999.0,-999,0.00,,,0.00,weatherlink.com 1.10,2013-04-10 12:13:00,
2013-04-10 06:27:00,-999.0,-99.9,30.30,North,-999,-999.0,-999.0,-999,0.00,,,0.00,weatherlink.com 1.10,2013-04-10 12:27:00,
2013-04-10 06:42:00,-999.0,-99.9,30.29,North,-999,-999.0,-999.0,-999,0.00,,,0.00,weatherlink.com 1.10,2013-04-10 12:42:00,
2013-04-10 06:57:00,12.9,10.0,30.30,WNW,288,2.0,6.0,87,0.00,,,0.00,weatherlink.com 1.10,2013-04-10 12:57:00,
2013-04-10 07:12:00,12.9,10.0,30.30,NW,304,3.0,5.0,87,0.00,,,0.00,weatherlink.com 1.10,2013-04-10 13:12:00,
2013-04-10 07:27:00,13.3,10.0,30.31,WNW,300,3.0,6.0,85,0.00,,,0.00,weatherlink.com 1.10,2013-04-10 13:27:00,
2013-04-10 07:42:00,13.6,10.0,30.32,WNW,290,3.0,6.0,84,0.00,,,0.00,weatherlink.com 1.10,2013-04-10 13:42:00,
2013-04-10 07:57:00,13.8,10.0,30.32,West,266,2.0,9.0,84,0.00,,,0.00,weatherlink.com 1.10,2013-04-10 13:57:00,
2013-04-10 08:12:00,14.1,10.0,30.32,West,267,4.0,8.0,83,0.00,,,0.00,weatherlink.com 1.10,2013-04-10 14:12:00,
2013-04-10 08:27:00,14.5,10.0,30.33,NW,305,4.0,7.0,82,0.00,,,0.00,weatherlink.com 1.10,2013-04-10 14:27:00,
2013-04-10 08:42:00,14.9,10.0,30.33,WNW,300,4.0,9.0,81,0.00,,,0.00,weatherlink.com 1.10,2013-04-10 14:42:00,
2013-04-10 08:57:00,15.2,11.0,30.33,West,278,4.0,10.0,82,0.00,,,0.00,weatherlink.com 1.10,2013-04-10 14:57:00,
2013-04-10 09:12:00,15.3,10.0,30.32,West,274,3.0,10.0,80,0.00,,,0.00,weatherlink.com 1.10,2013-04-10 15:12:00,
2013-04-10 09:27:00,15.8,11.0,30.32,WSW,256,3.0,10.0,81,0.00,,,0.00,weatherlink.com 1.10,2013-04-10 15:27:00,
2013-04-10 09:43:00,16.7,12.0,30.32,WNW,291,10.0,13.0,80,0.00,,,0.00,weatherlink.com 1.10,2013-04-10 15:43:00,
2013-04-10 09:58:00,17.1,12.0,30.31,WNW,301,8.0,13.0,80,0.00,,,0.00,weatherlink.com 1.10,2013-04-10 15:58:00,
2013-04-10 10:13:00,17.3,12.0,30.31,NW,323,7.0,15.0,81,0.00,,,0.00,weatherlink.com 1.10,2013-04-10 16:13:00,
2013-04-10 10:28:00,17.5,13.0,30.31,WNW,300,7.0,13.0,81,0.00,,,0.00,weatherlink.com 1.10,2013-04-10 16:28:00,
2013-04-10 10:43:00,17.9,13.0,30.32,WNW,300,9.0,14.0,80,0.00,,,0.00,weatherlink.com 1.10,2013-04-10 16:43:00,
2013-04-10 10:58:00,18.6,13.0,30.31,NW,313,10.0,14.0,79,0.00,,,0.00,weatherlink.com 1.10,2013-04-10 16:58:00,
2013-04-10 11:13:00,18.8,13.0,30.30,West,276,7.0,16.0,79,0.00,,,0.00,weatherlink.com 1.10,2013-04-10 17:13:00,
2013-04-10 11:28:00,20.1,15.0,30.30,WNW,293,12.0,14.0,80,0.00,,,0.00,weatherlink.com 1.10,2013-04-10 17:28:00,
2013-04-10 11:43:00,20.3,14.0,30.30,NNW,336,12.0,16.0,78,0.00,,,0.00,weatherlink.com 1.10,2013-04-10 17:43:00,
2013-04-10 11:58:00,21.0,15.0,30.30,West,281,7.0,15.0,77,0.00,,,0.00,weatherlink.com 1.10,2013-04-10 17:58:00,
2013-04-10 12:13:00,21.1,15.0,30.29,NW,304,8.0,17.0,76,0.00,,,0.00,weatherlink.com 1.10,2013-04-10 18:13:00,
2013-04-10 12:28:00,21.2,15.0,30.29,NW,312,13.0,15.0,77,0.00,,,0.00,weatherlink.com 1.10,2013-04-10 18:28:00,
2013-04-10 12:43:00,21.6,15.0,30.27,WNW,302,5.0,15.0,76,0.00,,,0.00,weatherlink.com 1.10,2013-04-10 18:43:00,
2013-04-10 12:58:00,22.0,15.0,30.27,West,273,12.0,15.0,73,0.00,,,0.00,weatherlink.com 1.10,2013-04-10 18:58:00,
2013-04-10 13:13:00,22.4,15.0,30.26,West,262,11.0,16.0,72,0.00,,,0.00,weatherlink.com 1.10,2013-04-10 19:13:00,
2013-04-10 13:28:00,22.8,14.0,30.25,NW,317,7.0,16.0,70,0.00,,,0.00,weatherlink.com 1.10,2013-04-10 19:28:00,
2013-04-10 13:43:00,23.2,14.0,30.25,WNW,300,9.0,15.0,68,0.00,,,0.00,weatherlink.com 1.10,2013-04-10 19:43:00,
2013-04-10 13:58:00,24.1,14.0,30.24,NW,322,12.0,12.0,66,0.00,,,0.00,weatherlink.com 1.10,2013-04-10 19:58:00,
2013-04-10 14:13:00,23.6,14.0,30.23,WNW,288,9.0,15.0,67,0.00,,,0.00,weatherlink.com 1.10,2013-04-10 20:13:00,
2013-04-10 14:28:00,24.6,16.0,30.23,WNW,300,9.0,21.0,69,0.00,,,0.00,weatherlink.com 1.10,2013-04-10 20:28:00,
2013-04-10 14:43:00,24.6,15.0,30.22,WNW,298,10.0,15.0,66,0.00,,,0.00,weatherlink.com 1.10,2013-04-10 20:43:00,
2013-04-10 14:58:00,25.1,16.0,30.21,WNW,292,5.0,14.0,67,0.00,,,0.00,weatherlink.com 1.10,2013-04-10 20:58:00,
2013-04-10 15:13:00,25.3,15.0,30.20,WSW,250,11.0,15.0,66,0.00,,,0.00,weatherlink.com 1.10,2013-04-10 21:13:00,
2013-04-10 15:28:00,25.3,15.0,30.19,WNW,301,9.0,17.0,65,0.00,,,0.00,weatherlink.com 1.10,2013-04-10 21:28:00,
2013-04-10 15:43:00,25.4,15.0,30.18,West,278,10.0,16.0,66,0.00,,,0.00,weatherlink.com 1.10,2013-04-10 21:43:00,
2013-04-10 15:58:00,25.7,16.0,30.16,NW,317,9.0,14.0,66,0.00,,,0.00,weatherlink.com 1.10,2013-04-10 21:58:00,
2013-04-10 16:13:00,25.7,16.0,30.16,WNW,293,11.0,14.0,66,0.00,,,0.00,weatherlink.com 1.10,2013-04-10 22:13:00,
2013-04-10 16:28:00,26.0,15.0,30.16,NW,312,10.0,13.0,64,0.00,,,0.00,weatherlink.com 1.10,2013-04-10 22:28:00,
2013-04-10 16:43:00,26.2,16.0,30.14,WNW,302,8.0,13.0,65,0.00,,,0.00,weatherlink.com 1.10,2013-04-10 22:43:00,
2013-04-10 16:59:00,26.1,16.0,30.14,WNW,290,5.0,12.0,65,0.00,,,0.00,weatherlink.com 1.10,2013-04-10 22:59:00,
2013-04-10 17:14:00,26.2,16.0,30.13,WNW,290,5.0,13.0,65,0.00,,,0.00,weatherlink.com 1.10,2013-04-10 23:14:00,
2013-04-10 17:29:00,26.2,15.0,30.12,West,280,6.0,14.0,64,0.00,,,0.00,weatherlink.com 1.10,2013-04-10 23:29:00,
2013-04-10 17:44:00,25.8,16.0,30.12,NW,314,5.0,11.0,66,0.00,,,0.00,weatherlink.com 1.10,2013-04-10 23:44:00,
2013-04-10 17:59:00,26.2,16.0,30.12,NW,307,6.0,10.0,65,0.00,,,0.00,weatherlink.com 1.10,2013-04-10 23:59:00,
2013-04-10 18:14:00,26.4,16.0,30.11,NW,308,6.0,10.0,64,0.00,,,0.00,weatherlink.com 1.10,2013-04-11 00:14:00,
2013-04-10 18:29:00,26.1,15.0,30.10,WNW,287,3.0,10.0,64,0.00,,,0.00,weatherlink.com 1.10,2013-04-11 00:29:00,
2013-04-10 18:44:00,26.1,15.0,30.10,West,278,3.0,8.0,64,0.00,,,0.00,weatherlink.com 1.10,2013-04-11 00:44:00,
2013-04-10 18:59:00,25.7,15.0,30.10,NW,316,5.0,7.0,65,0.00,,,0.00,weatherlink.com 1.10,2013-04-11 00:59:00,
2013-04-10 19:14:00,24.9,15.0,30.09,WNW,300,2.0,6.0,66,0.00,,,0.00,weatherlink.com 1.10,2013-04-11 01:14:00,
2013-04-10 19:29:00,24.0,14.0,30.09,WNW,290,2.0,5.0,67,0.00,,,0.00,weatherlink.com 1.10,2013-04-11 01:29:00,
2013-04-10 19:44:00,22.1,14.0,30.08,WSW,245,0.0,1.0,71,0.00,,,0.00,weatherlink.com 1.10,2013-04-11 01:44:00,
2013-04-10 19:59:00,20.8,14.0,30.08,SSW,195,1.0,1.0,76,0.00,,,0.00,weatherlink.com 1.10,2013-04-11 01:59:00,
2013-04-10 20:14:00,19.7,14.0,30.07,SSW,195,0.0,1.0,79,0.00,,,0.00,weatherlink.com 1.10,2013-04-11 02:14:00,
2013-04-10 20:29:00,19.0,14.0,30.07,SSW,196,0.0,1.0,81,0.00,,,0.00,weatherlink.com 1.10,2013-04-11 02:29:00,
2013-04-10 20:44:00,18.8,14.0,30.07,SSW,195,0.0,1.0,82,0.00,,,0.00,weatherlink.com 1.10,2013-04-11 02:44:00,
2013-04-10 20:59:00,18.5,14.0,30.07,SSW,195,0.0,0.0,82,0.00,,,0.00,weatherlink.com 1.10,2013-04-11 02:59:00,
2013-04-10 21:14:00,19.5,15.0,30.07,SSW,198,0.0,0.0,81,0.00,,,0.00,weatherlink.com 1.10,2013-04-11 03:14:00,
2013-04-10 21:44:00,18.1,14.0,30.06,SW,218,0.0,0.0,83,0.00,,,0.00,weatherlink.com 1.10,2013-04-11 03:44:00,
2013-04-10 21:59:00,17.1,13.0,30.06,SW,214,0.0,1.0,85,0.00,,,0.00,weatherlink.com 1.10,2013-04-11 03:59:00,
2013-04-10 22:14:00,16.0,12.0,30.06,SSW,210,0.0,0.0,85,0.00,,,0.00,weatherlink.com 1.10,2013-04-11 04:14:00,
2013-04-10 22:29:00,14.9,12.0,30.05,SSW,210,0.0,0.0,86,0.00,,,0.00,weatherlink.com 1.10,2013-04-11 04:29:00,
2013-04-10 22:44:00,14.1,11.0,30.04,SSW,210,0.0,1.0,87,0.00,,,0.00,weatherlink.com 1.10,2013-04-11 04:44:00,
2013-04-10 22:59:00,13.8,11.0,30.04,WSW,250,0.0,0.0,88,0.00,,,0.00,weatherlink.com 1.10,2013-04-11 04:59:00,
2013-04-10 23:14:00,13.6,11.0,30.03,WSW,250,0.0,0.0,88,0.00,,,0.00,weatherlink.com 1.10,2013-04-11 05:14:00,
2013-04-10 23:29:00,12.3,9.0,30.02,SSW,203,0.0,1.0,86,0.00,,,0.00,weatherlink.com 1.10,2013-04-11 05:29:00,
2013-04-10 23:44:00,11.4,8.0,30.02,SSE,167,1.0,2.0,86,0.00,,,0.00,weatherlink.com 1.10,2013-04-11 05:44:00,
2013-04-10 23:59:00,10.3,7.0,30.01,SSW,210,2.0,2.0,87,0.00,,,0.00,weatherlink.com 1.10,2013-04-11 05:59:00,